sensor_id;sensor_type;location;lat;lon;timestamp;pressure;altitude;pressure_sealevel;temperature;humidity
8160;BME280;27404;52.398;9.646;2023-02-15T00:00:32;102260.34;;;0.31;100.00
8160;BME280;27404;52.398;9.646;2023-02-15T00:02:58;102264.25;;;0.59;100.00
8160;BME280;27404;52.398;9.646;2023-02-15T00:05:23;102246.59;;;0.66;100.00
8160;BME280;27404;52.398;9.646;2023-02-15T00:07:48;102253.53;;;0.48;100.00
8160;BME280;27404;52.398;9.646;2023-02-15T00:10:14;102252.72;;;0.36;100.00
8160;BME280;27404;52.398;9.646;2023-02-15T00:12:39;102247.66;;;0.21;100.00
8160;BME280;27404;52.398;9.646;2023-02-15T00:15:05;102244.84;;;0.11;100.00
8160;BME280;27404;52.398;9.646;2023-02-15T00:17:30;102237.41;;;0.15;100.00
8160;BME280;27404;52.398;9.646;2023-02-15T00:19:56;102236.88;;;0.21;100.00
8160;BME280;27404;52.398;9.646;2023-02-15T00:22:21;102231.53;;;0.10;100.00
8160;BME280;27404;52.398;9.646;2023-02-15T00:24:46;102227.16;;;-0.03;100.00
8160;BME280;27404;52.398;9.646;2023-02-15T00:27:12;102225.97;;;-0.10;100.00
8160;BME280;27404;52.398;9.646;2023-02-15T00:29:37;102218.53;;;-0.18;100.00
8160;BME280;27404;52.398;9.646;2023-02-15T00:32:03;102224.41;;;-0.24;100.00
8160;BME280;27404;52.398;9.646;2023-02-15T00:34:28;102218.31;;;-0.26;100.00
8160;BME280;27404;52.398;9.646;2023-02-15T00:36:54;102217.59;;;-0.28;100.00
8160;BME280;27404;52.398;9.646;2023-02-15T00:39:20;102219.53;;;-0.30;100.00
8160;BME280;27404;52.398;9.646;2023-02-15T00:41:46;102214.13;;;-0.07;100.00
8160;BME280;27404;52.398;9.646;2023-02-15T00:44:14;102208.78;;;-0.19;100.00
8160;BME280;27404;52.398;9.646;2023-02-15T00:46:39;102216.47;;;-0.25;100.00
8160;BME280;27404;52.398;9.646;2023-02-15T00:49:05;102215.13;;;-0.31;100.00
8160;BME280;27404;52.398;9.646;2023-02-15T00:51:31;102214.53;;;-0.35;100.00
8160;BME280;27404;52.398;9.646;2023-02-15T00:53:57;102218.56;;;-0.40;100.00
8160;BME280;27404;52.398;9.646;2023-02-15T00:56:22;102216.84;;;-0.41;100.00
8160;BME280;27404;52.398;9.646;2023-02-15T00:58:48;102211.72;;;-0.45;100.00
8160;BME280;27404;52.398;9.646;2023-02-15T01:01:17;102219.78;;;-0.45;100.00
8160;BME280;27404;52.398;9.646;2023-02-15T01:03:43;102212.13;;;-0.49;100.00
8160;BME280;27404;52.398;9.646;2023-02-15T01:06:09;102219.69;;;-0.54;100.00
8160;BME280;27404;52.398;9.646;2023-02-15T01:08:36;102210.03;;;-0.57;100.00
8160;BME280;27404;52.398;9.646;2023-02-15T01:11:09;102206.13;;;-0.64;100.00
8160;BME280;27404;52.398;9.646;2023-02-15T01:13:35;102210.78;;;-0.66;100.00
8160;BME280;27404;52.398;9.646;2023-02-15T01:16:02;102203.56;;;-0.66;100.00
8160;BME280;27404;52.398;9.646;2023-02-15T01:18:27;102197.81;;;-0.61;100.00
8160;BME280;27404;52.398;9.646;2023-02-15T01:20:53;102199.28;;;-0.57;100.00
8160;BME280;27404;52.398;9.646;2023-02-15T01:23:18;102193.81;;;-0.55;100.00
8160;BME280;27404;52.398;9.646;2023-02-15T01:25:44;102197.47;;;-0.56;100.00
8160;BME280;27404;52.398;9.646;2023-02-15T01:28:10;102198.69;;;-0.61;100.00
8160;BME280;27404;52.398;9.646;2023-02-15T01:30:35;102190.28;;;-0.67;100.00
8160;BME280;27404;52.398;9.646;2023-02-15T01:33:01;102188.19;;;-0.75;100.00
8160;BME280;27404;52.398;9.646;2023-02-15T01:35:27;102190.88;;;-0.86;100.00
8160;BME280;27404;52.398;9.646;2023-02-15T01:37:54;102190.38;;;-0.80;100.00
8160;BME280;27404;52.398;9.646;2023-02-15T01:40:20;102194.06;;;-0.70;100.00
8160;BME280;27404;52.398;9.646;2023-02-15T01:42:50;102194.28;;;-0.62;100.00
8160;BME280;27404;52.398;9.646;2023-02-15T01:45:31;102190.63;;;-0.72;100.00
8160;BME280;27404;52.398;9.646;2023-02-15T01:48:01;102190.75;;;-0.85;100.00
8160;BME280;27404;52.398;9.646;2023-02-15T01:55:47;102186.59;;;-1.00;100.00
8160;BME280;27404;52.398;9.646;2023-02-15T01:58:14;102178.66;;;-0.91;100.00
8160;BME280;27404;52.398;9.646;2023-02-15T02:00:40;102180.13;;;-0.98;100.00
8160;BME280;27404;52.398;9.646;2023-02-15T02:03:05;102174.53;;;-1.06;100.00
8160;BME280;27404;52.398;9.646;2023-02-15T02:05:32;102171.97;;;-1.08;100.00
8160;BME280;27404;52.398;9.646;2023-02-15T02:07:59;102162.56;;;-1.13;100.00
8160;BME280;27404;52.398;9.646;2023-02-15T02:10:27;102168.53;;;-1.10;100.00
8160;BME280;27404;52.398;9.646;2023-02-15T02:12:55;102156.56;;;-1.17;100.00
8160;BME280;27404;52.398;9.646;2023-02-15T02:15:32;102154.88;;;-1.18;100.00
8160;BME280;27404;52.398;9.646;2023-02-15T02:20:58;102148.75;;;-1.31;100.00
8160;BME280;27404;52.398;9.646;2023-02-15T02:23:51;102146.44;;;-1.36;100.00
8160;BME280;27404;52.398;9.646;2023-02-15T02:35:11;102130.22;;;-1.46;100.00
8160;BME280;27404;52.398;9.646;2023-02-15T02:40:43;102128.88;;;-1.40;100.00
8160;BME280;27404;52.398;9.646;2023-02-15T02:43:21;102127.28;;;-1.31;100.00
8160;BME280;27404;52.398;9.646;2023-02-15T02:46:16;102129.13;;;-1.32;100.00
8160;BME280;27404;52.398;9.646;2023-02-15T02:48:43;102128.38;;;-1.34;100.00
8160;BME280;27404;52.398;9.646;2023-02-15T02:51:09;102127.66;;;-1.36;100.00
8160;BME280;27404;52.398;9.646;2023-02-15T02:53:34;102134.22;;;-1.40;100.00
8160;BME280;27404;52.398;9.646;2023-02-15T02:56:11;102129.09;;;-1.43;100.00
8160;BME280;27404;52.398;9.646;2023-02-15T02:58:53;102129.97;;;-1.43;100.00
8160;BME280;27404;52.398;9.646;2023-02-15T03:01:25;102129.00;;;-1.42;100.00
8160;BME280;27404;52.398;9.646;2023-02-15T03:04:02;102126.06;;;-1.50;100.00
8160;BME280;27404;52.398;9.646;2023-02-15T03:09:25;102118.34;;;-1.66;100.00
8160;BME280;27404;52.398;9.646;2023-02-15T03:12:00;102115.41;;;-1.74;100.00
8160;BME280;27404;52.398;9.646;2023-02-15T03:14:27;102112.56;;;-1.84;100.00
8160;BME280;27404;52.398;9.646;2023-02-15T03:16:54;102110.09;;;-1.87;100.00
8160;BME280;27404;52.398;9.646;2023-02-15T03:19:29;102102.19;;;-1.89;100.00
8160;BME280;27404;52.398;9.646;2023-02-15T03:21:59;102098.28;;;-1.96;100.00
8160;BME280;27404;52.398;9.646;2023-02-15T03:24:59;102098.16;;;-1.95;100.00
8160;BME280;27404;52.398;9.646;2023-02-15T03:27:31;102098.38;;;-1.98;100.00
8160;BME280;27404;52.398;9.646;2023-02-15T03:29:59;102085.84;;;-1.97;100.00
8160;BME280;27404;52.398;9.646;2023-02-15T03:32:28;102080.84;;;-2.02;100.00
8160;BME280;27404;52.398;9.646;2023-02-15T03:34:55;102093.38;;;-2.02;100.00
8160;BME280;27404;52.398;9.646;2023-02-15T03:37:28;102089.88;;;-2.03;100.00
8160;BME280;27404;52.398;9.646;2023-02-15T03:40:26;102089.34;;;-2.08;100.00
8160;BME280;27404;52.398;9.646;2023-02-15T03:43:31;102084.56;;;-2.16;100.00
8160;BME280;27404;52.398;9.646;2023-02-15T03:48:57;102089.81;;;-2.14;100.00
8160;BME280;27404;52.398;9.646;2023-02-15T03:51:28;102094.31;;;-2.15;100.00
8160;BME280;27404;52.398;9.646;2023-02-15T03:54:15;102091.25;;;-2.21;100.00
8160;BME280;27404;52.398;9.646;2023-02-15T03:57:06;102094.66;;;-2.19;100.00
8160;BME280;27404;52.398;9.646;2023-02-15T03:59:50;102097.56;;;-2.22;100.00
8160;BME280;27404;52.398;9.646;2023-02-15T04:02:42;102094.38;;;-2.28;100.00
8160;BME280;27404;52.398;9.646;2023-02-15T04:05:10;102096.59;;;-2.21;100.00
8160;BME280;27404;52.398;9.646;2023-02-15T04:07:35;102100.47;;;-2.26;100.00
8160;BME280;27404;52.398;9.646;2023-02-15T04:10:01;102098.03;;;-2.29;100.00
8160;BME280;27404;52.398;9.646;2023-02-15T04:12:45;102090.59;;;-2.25;100.00
8160;BME280;27404;52.398;9.646;2023-02-15T04:15:13;102083.81;;;-2.18;100.00
8160;BME280;27404;52.398;9.646;2023-02-15T04:17:57;102082.09;;;-2.19;100.00
8160;BME280;27404;52.398;9.646;2023-02-15T04:20:23;102085.16;;;-2.24;100.00
8160;BME280;27404;52.398;9.646;2023-02-15T04:23:07;102080.03;;;-2.27;100.00
8160;BME280;27404;52.398;9.646;2023-02-15T04:25:51;102078.19;;;-2.26;100.00
8160;BME280;27404;52.398;9.646;2023-02-15T04:28:17;102071.59;;;-2.33;100.00
8160;BME280;27404;52.398;9.646;2023-02-15T04:30:42;102080.47;;;-2.33;100.00
8160;BME280;27404;52.398;9.646;2023-02-15T04:33:08;102083.28;;;-2.34;100.00
8160;BME280;27404;52.398;9.646;2023-02-15T04:35:33;102078.25;;;-2.39;100.00
8160;BME280;27404;52.398;9.646;2023-02-15T04:37:59;102079.34;;;-2.42;100.00
8160;BME280;27404;52.398;9.646;2023-02-15T04:40:24;102069.84;;;-2.46;100.00
8160;BME280;27404;52.398;9.646;2023-02-15T04:42:50;102070.69;;;-2.45;100.00
8160;BME280;27404;52.398;9.646;2023-02-15T04:45:16;102069.75;;;-2.33;100.00
8160;BME280;27404;52.398;9.646;2023-02-15T04:47:42;102062.53;;;-2.19;100.00
8160;BME280;27404;52.398;9.646;2023-02-15T04:50:08;102063.03;;;-2.14;100.00
8160;BME280;27404;52.398;9.646;2023-02-15T04:52:34;102060.13;;;-2.11;100.00
8160;BME280;27404;52.398;9.646;2023-02-15T04:55:00;102055.09;;;-2.16;100.00
8160;BME280;27404;52.398;9.646;2023-02-15T04:57:25;102060.13;;;-2.11;100.00
8160;BME280;27404;52.398;9.646;2023-02-15T04:59:50;102052.69;;;-2.08;100.00
8160;BME280;27404;52.398;9.646;2023-02-15T05:02:16;102053.63;;;-2.20;100.00
8160;BME280;27404;52.398;9.646;2023-02-15T05:04:41;102047.88;;;-2.27;100.00
8160;BME280;27404;52.398;9.646;2023-02-15T05:07:07;102058.53;;;-2.38;100.00
8160;BME280;27404;52.398;9.646;2023-02-15T05:09:32;102053.13;;;-2.49;100.00
8160;BME280;27404;52.398;9.646;2023-02-15T05:11:57;102055.94;;;-2.51;100.00
8160;BME280;27404;52.398;9.646;2023-02-15T05:14:23;102055.72;;;-2.48;100.00
8160;BME280;27404;52.398;9.646;2023-02-15T05:16:48;102052.63;;;-2.55;100.00
8160;BME280;27404;52.398;9.646;2023-02-15T05:19:14;102061.22;;;-2.62;100.00
8160;BME280;27404;52.398;9.646;2023-02-15T05:21:39;102060.84;;;-2.69;100.00
8160;BME280;27404;52.398;9.646;2023-02-15T05:24:05;102057.00;;;-2.78;100.00
8160;BME280;27404;52.398;9.646;2023-02-15T05:26:50;102062.72;;;-2.83;100.00
8160;BME280;27404;52.398;9.646;2023-02-15T05:29:34;102051.47;;;-2.88;100.00
8160;BME280;27404;52.398;9.646;2023-02-15T05:31:59;102044.63;;;-2.92;100.00
8160;BME280;27404;52.398;9.646;2023-02-15T05:34:25;102035.72;;;-2.79;100.00
8160;BME280;27404;52.398;9.646;2023-02-15T05:36:50;102025.00;;;-2.79;100.00
8160;BME280;27404;52.398;9.646;2023-02-15T05:39:16;102024.72;;;-2.88;100.00
8160;BME280;27404;52.398;9.646;2023-02-15T05:41:41;102021.31;;;-2.90;100.00
8160;BME280;27404;52.398;9.646;2023-02-15T05:44:06;102020.50;;;-2.79;100.00
8160;BME280;27404;52.398;9.646;2023-02-15T05:46:32;102020.78;;;-2.71;100.00
8160;BME280;27404;52.398;9.646;2023-02-15T05:48:57;102018.56;;;-2.77;100.00
8160;BME280;27404;52.398;9.646;2023-02-15T05:51:23;102009.06;;;-2.81;100.00
8160;BME280;27404;52.398;9.646;2023-02-15T05:53:48;102018.09;;;-2.71;100.00
8160;BME280;27404;52.398;9.646;2023-02-15T05:56:13;102019.66;;;-2.55;100.00
8160;BME280;27404;52.398;9.646;2023-02-15T05:58:41;102016.75;;;-2.52;100.00
8160;BME280;27404;52.398;9.646;2023-02-15T06:01:17;102021.97;;;-2.50;100.00
8160;BME280;27404;52.398;9.646;2023-02-15T06:03:44;102029.38;;;-2.54;100.00
8160;BME280;27404;52.398;9.646;2023-02-15T06:06:10;102019.13;;;-2.60;100.00
8160;BME280;27404;52.398;9.646;2023-02-15T06:08:36;102024.84;;;-2.65;100.00
8160;BME280;27404;52.398;9.646;2023-02-15T06:11:02;102024.22;;;-2.69;100.00
8160;BME280;27404;52.398;9.646;2023-02-15T06:13:28;102027.97;;;-2.71;100.00
8160;BME280;27404;52.398;9.646;2023-02-15T06:15:54;102028.50;;;-2.66;100.00
8160;BME280;27404;52.398;9.646;2023-02-15T06:18:19;102025.91;;;-2.68;100.00
8160;BME280;27404;52.398;9.646;2023-02-15T06:20:46;102024.34;;;-2.70;100.00
8160;BME280;27404;52.398;9.646;2023-02-15T06:23:11;102027.56;;;-2.78;100.00
8160;BME280;27404;52.398;9.646;2023-02-15T06:25:37;102021.59;;;-2.81;100.00
8160;BME280;27404;52.398;9.646;2023-02-15T06:28:02;102021.59;;;-2.81;100.00
8160;BME280;27404;52.398;9.646;2023-02-15T06:30:27;102031.34;;;-2.80;100.00
8160;BME280;27404;52.398;9.646;2023-02-15T06:32:53;102024.03;;;-2.78;100.00
8160;BME280;27404;52.398;9.646;2023-02-15T06:35:18;102015.66;;;-2.74;100.00
8160;BME280;27404;52.398;9.646;2023-02-15T06:37:45;102019.44;;;-2.76;100.00
8160;BME280;27404;52.398;9.646;2023-02-15T06:40:12;102030.47;;;-2.81;100.00
8160;BME280;27404;52.398;9.646;2023-02-15T06:42:37;102023.91;;;-2.77;100.00
8160;BME280;27404;52.398;9.646;2023-02-15T06:45:04;102014.31;;;-2.79;100.00
8160;BME280;27404;52.398;9.646;2023-02-15T06:47:29;102020.50;;;-2.79;100.00
8160;BME280;27404;52.398;9.646;2023-02-15T06:49:55;102027.78;;;-2.81;100.00
8160;BME280;27404;52.398;9.646;2023-02-15T06:52:20;102019.75;;;-2.81;100.00
8160;BME280;27404;52.398;9.646;2023-02-15T06:54:46;102015.88;;;-2.77;100.00
8160;BME280;27404;52.398;9.646;2023-02-15T06:57:11;102018.25;;;-2.72;100.00
8160;BME280;27404;52.398;9.646;2023-02-15T06:59:36;102022.84;;;-2.74;100.00
8160;BME280;27404;52.398;9.646;2023-02-15T07:02:02;102016.53;;;-2.73;100.00
8160;BME280;27404;52.398;9.646;2023-02-15T07:04:27;102020.56;;;-2.68;100.00
8160;BME280;27404;52.398;9.646;2023-02-15T07:06:54;102022.88;;;-2.63;100.00
8160;BME280;27404;52.398;9.646;2023-02-15T07:09:20;102023.53;;;-2.59;100.00
8160;BME280;27404;52.398;9.646;2023-02-15T07:11:46;102024.03;;;-2.54;100.00
8160;BME280;27404;52.398;9.646;2023-02-15T07:14:30;102022.09;;;-2.52;100.00
8160;BME280;27404;52.398;9.646;2023-02-15T07:16:57;102024.31;;;-2.46;100.00
8160;BME280;27404;52.398;9.646;2023-02-15T07:19:22;102023.00;;;-2.40;100.00
8160;BME280;27404;52.398;9.646;2023-02-15T07:21:48;102027.78;;;-2.32;100.00
8160;BME280;27404;52.398;9.646;2023-02-15T07:24:13;102029.72;;;-2.23;100.00
8160;BME280;27404;52.398;9.646;2023-02-15T07:26:39;102029.03;;;-2.14;100.00
8160;BME280;27404;52.398;9.646;2023-02-15T07:29:04;102039.91;;;-2.04;100.00
8160;BME280;27404;52.398;9.646;2023-02-15T07:31:30;102032.75;;;-1.92;100.00
8160;BME280;27404;52.398;9.646;2023-02-15T07:33:55;102033.00;;;-1.84;100.00
8160;BME280;27404;52.398;9.646;2023-02-15T07:36:21;102030.69;;;-1.77;100.00
8160;BME280;27404;52.398;9.646;2023-02-15T07:38:46;102028.28;;;-1.69;100.00
8160;BME280;27404;52.398;9.646;2023-02-15T07:41:13;102017.66;;;-1.59;100.00
8160;BME280;27404;52.398;9.646;2023-02-15T07:43:41;102027.16;;;-1.55;100.00
8160;BME280;27404;52.398;9.646;2023-02-15T07:46:09;102031.06;;;-1.47;100.00
8160;BME280;27404;52.398;9.646;2023-02-15T07:48:38;102033.28;;;-1.41;100.00
8160;BME280;27404;52.398;9.646;2023-02-15T07:51:06;102024.63;;;-1.33;100.00
8160;BME280;27404;52.398;9.646;2023-02-15T07:53:32;102024.00;;;-1.26;100.00
8160;BME280;27404;52.398;9.646;2023-02-15T07:56:05;102026.53;;;-1.13;100.00
8160;BME280;27404;52.398;9.646;2023-02-15T07:58:32;102029.59;;;-1.06;100.00
8160;BME280;27404;52.398;9.646;2023-02-15T08:01:26;102022.38;;;-0.94;100.00
8160;BME280;27404;52.398;9.646;2023-02-15T08:03:56;102018.53;;;-0.80;100.00
8160;BME280;27404;52.398;9.646;2023-02-15T08:06:23;102011.31;;;-0.68;100.00
8160;BME280;27404;52.398;9.646;2023-02-15T08:08:49;102000.06;;;-0.62;100.00
8160;BME280;27404;52.398;9.646;2023-02-15T08:11:18;102001.97;;;-0.53;100.00
8160;BME280;27404;52.398;9.646;2023-02-15T08:14:17;102009.00;;;-0.40;100.00
8160;BME280;27404;52.398;9.646;2023-02-15T08:16:45;102001.16;;;-0.32;100.00
8160;BME280;27404;52.398;9.646;2023-02-15T08:19:25;101994.00;;;-0.22;100.00
8160;BME280;27404;52.398;9.646;2023-02-15T08:21:56;101986.28;;;-0.15;100.00
8160;BME280;27404;52.398;9.646;2023-02-15T08:24:23;101989.16;;;-0.07;100.00
8160;BME280;27404;52.398;9.646;2023-02-15T08:26:50;101979.44;;;0.02;100.00
8160;BME280;27404;52.398;9.646;2023-02-15T08:29:18;101979.63;;;0.10;100.00
8160;BME280;27404;52.398;9.646;2023-02-15T08:31:45;101985.19;;;0.19;100.00
8160;BME280;27404;52.398;9.646;2023-02-15T08:34:14;101978.28;;;0.26;100.00
8160;BME280;27404;52.398;9.646;2023-02-15T08:36:40;101966.56;;;0.37;100.00
8160;BME280;27404;52.398;9.646;2023-02-15T08:39:06;101975.44;;;0.49;100.00
8160;BME280;27404;52.398;9.646;2023-02-15T08:41:35;101975.06;;;0.63;100.00
8160;BME280;27404;52.398;9.646;2023-02-15T08:44:05;101973.09;;;0.75;100.00
8160;BME280;27404;52.398;9.646;2023-02-15T08:46:33;101979.34;;;0.85;100.00
8160;BME280;27404;52.398;9.646;2023-02-15T08:49:00;101973.97;;;0.95;100.00
8160;BME280;27404;52.398;9.646;2023-02-15T08:51:30;101978.66;;;1.03;100.00
8160;BME280;27404;52.398;9.646;2023-02-15T08:53:58;101966.06;;;1.13;100.00
8160;BME280;27404;52.398;9.646;2023-02-15T08:56:27;101972.59;;;1.21;100.00
8160;BME280;27404;52.398;9.646;2023-02-15T08:58:53;101959.00;;;1.32;100.00
8160;BME280;27404;52.398;9.646;2023-02-15T09:01:21;101961.53;;;1.43;100.00
8160;BME280;27404;52.398;9.646;2023-02-15T09:03:49;101962.66;;;1.41;100.00
8160;BME280;27404;52.398;9.646;2023-02-15T09:06:16;101964.78;;;1.47;100.00
8160;BME280;27404;52.398;9.646;2023-02-15T09:08:42;101963.09;;;1.56;100.00
8160;BME280;27404;52.398;9.646;2023-02-15T09:11:17;101974.84;;;1.65;100.00
8160;BME280;27404;52.398;9.646;2023-02-15T09:13:49;101966.50;;;1.68;100.00
8160;BME280;27404;52.398;9.646;2023-02-15T09:16:15;101972.84;;;1.76;100.00
8160;BME280;27404;52.398;9.646;2023-02-15T09:18:44;101963.06;;;1.85;100.00
8160;BME280;27404;52.398;9.646;2023-02-15T09:21:15;101962.47;;;1.91;100.00
8160;BME280;27404;52.398;9.646;2023-02-15T09:23:42;101962.91;;;1.97;100.00
8160;BME280;27404;52.398;9.646;2023-02-15T09:26:10;101962.03;;;1.96;100.00
8160;BME280;27404;52.398;9.646;2023-02-15T09:28:36;101965.97;;;2.02;100.00
8160;BME280;27404;52.398;9.646;2023-02-15T09:33:35;101969.31;;;2.24;100.00
8160;BME280;27404;52.398;9.646;2023-02-15T09:36:05;101978.78;;;2.37;100.00
8160;BME280;27404;52.398;9.646;2023-02-15T09:38:31;101971.78;;;2.45;100.00
8160;BME280;27404;52.398;9.646;2023-02-15T09:41:16;101970.66;;;2.47;100.00
8160;BME280;27404;52.398;9.646;2023-02-15T09:46:43;101974.75;;;2.79;100.00
8160;BME280;27404;52.398;9.646;2023-02-15T10:00:49;101969.50;;;3.42;100.00
8160;BME280;27404;52.398;9.646;2023-02-15T10:03:38;101968.56;;;3.51;100.00
8160;BME280;27404;52.398;9.646;2023-02-15T10:08:52;101963.25;;;3.86;100.00
8160;BME280;27404;52.398;9.646;2023-02-15T10:11:30;101961.63;;;3.93;100.00
8160;BME280;27404;52.398;9.646;2023-02-15T10:16:46;101966.91;;;4.03;100.00
8160;BME280;27404;52.398;9.646;2023-02-15T10:19:38;101959.22;;;4.17;100.00
8160;BME280;27404;52.398;9.646;2023-02-15T10:22:11;101954.72;;;4.34;100.00
8160;BME280;27404;52.398;9.646;2023-02-15T10:24:46;101948.84;;;4.47;100.00
8160;BME280;27404;52.398;9.646;2023-02-15T10:27:19;101951.94;;;4.52;100.00
8160;BME280;27404;52.398;9.646;2023-02-15T10:32:48;101958.47;;;4.76;100.00
8160;BME280;27404;52.398;9.646;2023-02-15T10:38:29;101955.28;;;4.97;100.00
8160;BME280;27404;52.398;9.646;2023-02-15T10:50:14;101942.63;;;5.22;100.00
8160;BME280;27404;52.398;9.646;2023-02-15T10:58:39;101933.66;;;5.46;100.00
8160;BME280;27404;52.398;9.646;2023-02-15T11:04:23;101920.97;;;5.55;100.00
8160;BME280;27404;52.398;9.646;2023-02-15T11:06:57;101909.72;;;5.75;100.00
8160;BME280;27404;52.398;9.646;2023-02-15T11:09:29;101918.38;;;5.87;100.00
8160;BME280;27404;52.398;9.646;2023-02-15T11:11:58;101915.31;;;5.90;100.00
8160;BME280;27404;52.398;9.646;2023-02-15T11:14:48;101920.56;;;5.91;100.00
8160;BME280;27404;52.398;9.646;2023-02-15T11:17:18;101915.25;;;5.98;100.00
8160;BME280;27404;52.398;9.646;2023-02-15T11:19:56;101916.28;;;5.97;100.00
8160;BME280;27404;52.398;9.646;2023-02-15T11:22:25;101907.66;;;6.02;100.00
8160;BME280;27404;52.398;9.646;2023-02-15T11:24:51;101903.59;;;6.06;100.00
8160;BME280;27404;52.398;9.646;2023-02-15T11:27:26;101899.16;;;6.13;100.00
8160;BME280;27404;52.398;9.646;2023-02-15T11:30:15;101904.03;;;6.26;100.00
8160;BME280;27404;52.398;9.646;2023-02-15T11:32:43;101904.38;;;6.23;100.00
8160;BME280;27404;52.398;9.646;2023-02-15T11:37:51;101906.00;;;6.41;100.00
8160;BME280;27404;52.398;9.646;2023-02-15T11:40:25;101903.06;;;6.50;100.00
8160;BME280;27404;52.398;9.646;2023-02-15T11:42:55;101895.59;;;6.52;100.00
8160;BME280;27404;52.398;9.646;2023-02-15T11:45:34;101890.81;;;6.55;100.00
8160;BME280;27404;52.398;9.646;2023-02-15T11:48:00;101879.25;;;6.61;100.00
8160;BME280;27404;52.398;9.646;2023-02-15T11:50:33;101877.50;;;6.68;100.00
8160;BME280;27404;52.398;9.646;2023-02-15T11:53:05;101873.84;;;6.84;100.00
8160;BME280;27404;52.398;9.646;2023-02-15T11:55:32;101882.53;;;6.79;100.00
8160;BME280;27404;52.398;9.646;2023-02-15T11:58:23;101878.78;;;6.80;100.00
8160;BME280;27404;52.398;9.646;2023-02-15T12:00:57;101880.84;;;6.78;100.00
8160;BME280;27404;52.398;9.646;2023-02-15T12:03:35;101873.97;;;6.91;100.00
8160;BME280;27404;52.398;9.646;2023-02-15T12:06:05;101861.88;;;6.93;100.00
8160;BME280;27404;52.398;9.646;2023-02-15T12:08:42;101866.22;;;7.03;100.00
8160;BME280;27404;52.398;9.646;2023-02-15T12:11:18;101860.78;;;7.03;100.00
8160;BME280;27404;52.398;9.646;2023-02-15T12:14:04;101862.94;;;7.07;100.00
8160;BME280;27404;52.398;9.646;2023-02-15T12:16:44;101861.13;;;7.23;100.00
8160;BME280;27404;52.398;9.646;2023-02-15T12:21:51;101864.59;;;7.17;100.00
8160;BME280;27404;52.398;9.646;2023-02-15T12:24:25;101864.63;;;7.32;100.00
8160;BME280;27404;52.398;9.646;2023-02-15T12:27:15;101870.16;;;7.23;100.00
8160;BME280;27404;52.398;9.646;2023-02-15T12:29:44;101863.50;;;7.26;100.00
8160;BME280;27404;52.398;9.646;2023-02-15T12:32:34;101860.50;;;7.36;100.00
8160;BME280;27404;52.398;9.646;2023-02-15T12:35:08;101852.84;;;7.39;100.00
8160;BME280;27404;52.398;9.646;2023-02-15T12:37:34;101850.41;;;7.45;100.00
8160;BME280;27404;52.398;9.646;2023-02-15T12:40:18;101847.50;;;7.46;100.00
8160;BME280;27404;52.398;9.646;2023-02-15T12:42:44;101843.56;;;7.49;100.00
8160;BME280;27404;52.398;9.646;2023-02-15T12:45:31;101840.13;;;7.55;100.00
8160;BME280;27404;52.398;9.646;2023-02-15T12:50:39;101837.47;;;7.62;100.00
8160;BME280;27404;52.398;9.646;2023-02-15T12:53:19;101847.13;;;7.64;100.00
8160;BME280;27404;52.398;9.646;2023-02-15T12:55:55;101840.00;;;7.63;100.00
8160;BME280;27404;52.398;9.646;2023-02-15T12:58:23;101838.22;;;7.70;100.00
8160;BME280;27404;52.398;9.646;2023-02-15T13:03:34;101828.94;;;7.80;100.00
8160;BME280;27404;52.398;9.646;2023-02-15T13:06:01;101834.00;;;7.83;100.00
8160;BME280;27404;52.398;9.646;2023-02-15T13:08:33;101826.03;;;7.81;100.00
8160;BME280;27404;52.398;9.646;2023-02-15T13:11:07;101815.53;;;7.78;100.00
8160;BME280;27404;52.398;9.646;2023-02-15T13:13:59;101812.22;;;7.83;100.00
8160;BME280;27404;52.398;9.646;2023-02-15T13:16:36;101804.34;;;7.88;100.00
8160;BME280;27404;52.398;9.646;2023-02-15T13:19:10;101804.81;;;7.92;100.00
8160;BME280;27404;52.398;9.646;2023-02-15T13:21:40;101808.00;;;7.95;100.00
8160;BME280;27404;52.398;9.646;2023-02-15T13:26:43;101799.91;;;8.02;100.00
8160;BME280;27404;52.398;9.646;2023-02-15T13:29:17;101799.25;;;8.00;100.00
8160;BME280;27404;52.398;9.646;2023-02-15T13:31:44;101791.00;;;7.93;100.00
8160;BME280;27404;52.398;9.646;2023-02-15T13:34:18;101785.94;;;7.90;100.00
8160;BME280;27404;52.398;9.646;2023-02-15T13:37:01;101778.25;;;7.94;100.00
8160;BME280;27404;52.398;9.646;2023-02-15T13:39:38;101777.84;;;7.97;100.00
8160;BME280;27404;52.398;9.646;2023-02-15T13:42:18;101770.88;;;8.09;100.00
8160;BME280;27404;52.398;9.646;2023-02-15T13:48:19;101758.72;;;8.27;100.00
8160;BME280;27404;52.398;9.646;2023-02-15T13:56:31;101766.13;;;8.33;100.00
8160;BME280;27404;52.398;9.646;2023-02-15T13:59:12;101778.72;;;8.34;100.00
8160;BME280;27404;52.398;9.646;2023-02-15T14:01:58;101769.13;;;8.38;100.00
8160;BME280;27404;52.398;9.646;2023-02-15T14:15:48;101767.09;;;8.25;100.00
8160;BME280;27404;52.398;9.646;2023-02-15T14:18:46;101769.09;;;8.17;100.00
8160;BME280;27404;52.398;9.646;2023-02-15T14:21:21;101762.91;;;8.08;100.00
8160;BME280;27404;52.398;9.646;2023-02-15T14:24:42;101757.09;;;7.96;100.00
8160;BME280;27404;52.398;9.646;2023-02-15T14:27:22;101753.34;;;7.97;100.00
8160;BME280;27404;52.398;9.646;2023-02-15T14:30:04;101756.53;;;8.00;100.00
8160;BME280;27404;52.398;9.646;2023-02-15T14:32:45;101754.84;;;7.99;100.00
8160;BME280;27404;52.398;9.646;2023-02-15T14:35:21;101751.09;;;8.00;100.00
8160;BME280;27404;52.398;9.646;2023-02-15T14:37:51;101752.78;;;8.02;100.00
8160;BME280;27404;52.398;9.646;2023-02-15T14:40:46;101742.16;;;8.07;100.00
8160;BME280;27404;52.398;9.646;2023-02-15T14:46:50;101745.06;;;8.05;100.00
8160;BME280;27404;52.398;9.646;2023-02-15T14:49:27;101748.38;;;8.00;100.00
8160;BME280;27404;52.398;9.646;2023-02-15T14:52:02;101745.44;;;8.02;100.00
8160;BME280;27404;52.398;9.646;2023-02-15T15:07:19;101740.66;;;8.04;100.00
8160;BME280;27404;52.398;9.646;2023-02-15T15:09:57;101751.38;;;8.06;100.00
8160;BME280;27404;52.398;9.646;2023-02-15T15:14:52;101746.09;;;8.04;100.00
8160;BME280;27404;52.398;9.646;2023-02-15T15:20:01;101742.44;;;7.97;100.00
8160;BME280;27404;52.398;9.646;2023-02-15T15:22:28;101744.94;;;7.92;100.00